createdAt,value
2022-08-10T00:01:54.697Z,9.68
2022-08-10T00:04:23.940Z,9.68
2022-08-10T00:06:56.480Z,11.35
2022-08-10T00:09:24.502Z,10.70
2022-08-10T00:11:53.496Z,11.98
2022-08-10T00:14:21.393Z,7.97
2022-08-10T00:16:49.082Z,8.63
2022-08-10T00:19:18.415Z,11.60
2022-08-10T00:21:47.582Z,9.70
2022-08-10T00:24:16.346Z,10.88
2022-08-10T00:27:52.304Z,14.13
2022-08-10T00:29:31.219Z,7.95
2022-08-10T00:31:59.593Z,10.90
2022-08-10T00:34:32.511Z,9.48
2022-08-10T00:37:00.954Z,11.23
2022-08-10T00:39:29.774Z,10.35
2022-08-10T00:42:06.603Z,8.07
2022-08-10T00:44:42.681Z,12.68
2022-08-10T00:47:35.628Z,12.55
2022-08-10T00:49:59.060Z,16.42
2022-08-10T00:52:32.633Z,13.05
2022-08-10T00:55:05.138Z,16.10
2022-08-10T00:57:33.530Z,15.63
2022-08-10T01:00:01.683Z,9.55
2022-08-10T01:02:34.159Z,14.82
2022-08-10T01:05:07.653Z,16.40
2022-08-10T01:07:49.992Z,19.17
2022-08-10T01:10:49.938Z,15.60
2022-08-10T01:13:26.776Z,12.77
2022-08-10T01:16:04.798Z,21.60
2022-08-10T01:18:44.067Z,17.95
2022-08-10T01:21:56.816Z,19.75
2022-08-10T01:25:11.305Z,17.95
2022-08-10T01:27:59.516Z,20.83
2022-08-10T01:30:30.836Z,13.40
2022-08-10T01:33:13.158Z,21.65
2022-08-10T01:35:59.885Z,20.38
2022-08-10T01:38:32.651Z,16.42
2022-08-10T01:41:06.718Z,22.50
2022-08-10T01:43:37.405Z,17.10
2022-08-10T01:46:07.653Z,20.80
2022-08-10T01:48:40.394Z,17.83
2022-08-10T01:51:16.506Z,16.92
2022-08-10T01:53:54.858Z,15.95
2022-08-10T01:56:26.012Z,17.27
2022-08-10T01:58:59.533Z,15.82
2022-08-10T02:01:32.880Z,24.63
2022-08-10T02:04:06.358Z,19.30
2022-08-10T02:06:42.467Z,23.15
2022-08-10T02:09:13.343Z,22.42
2022-08-10T02:12:06.212Z,14.70
2022-08-10T02:14:34.995Z,20.13
2022-08-10T02:17:06.538Z,20.10
2022-08-10T02:19:39.129Z,18.63
2022-08-10T02:22:36.277Z,12.65
2022-08-10T02:24:58.026Z,14.27
2022-08-10T02:27:27.981Z,13.65
2022-08-10T02:29:57.938Z,9.70
2022-08-10T02:32:37.852Z,12.05
2022-08-10T02:35:22.250Z,12.48
2022-08-10T02:37:53.574Z,10.07
2022-08-10T02:45:00.994Z,8.13
2022-08-10T02:45:21.829Z,11.23
2022-08-10T02:46:41.472Z,11.77
2022-08-10T02:49:18.456Z,15.07
2022-08-10T02:52:07.331Z,10.32
2022-08-10T02:54:54.178Z,7.75
2022-08-10T02:57:28.797Z,8.73
2022-08-10T03:00:04.752Z,13.05
2022-08-10T03:02:42.552Z,9.48
2022-08-10T03:05:12.550Z,11.27
2022-08-10T03:07:52.163Z,10.85
2022-08-10T03:10:23.858Z,10.68
2022-08-10T03:12:58.998Z,9.50
2022-08-10T03:15:29.617Z,10.05
2022-08-10T03:17:59.088Z,8.35
2022-08-10T03:20:36.503Z,9.05
2022-08-10T03:23:19.395Z,11.57
2022-08-10T03:25:53.313Z,8.90
2022-08-10T03:28:24.969Z,10.45
2022-08-10T03:30:53.262Z,8.30
2022-08-10T03:33:22.864Z,16.08
2022-08-10T03:36:42.227Z,9.35
2022-08-10T03:38:41.041Z,9.85
2022-08-10T03:41:11.823Z,8.25
2022-08-10T03:43:48.201Z,9.18
2022-08-10T03:46:19.110Z,8.65
2022-08-10T03:48:50.051Z,18.85
2022-08-10T03:51:22.099Z,7.30
2022-08-10T03:54:05.350Z,7.88
2022-08-10T03:56:37.841Z,9.45
2022-08-10T03:59:07.937Z,8.45
2022-08-10T04:02:52.197Z,11.70
2022-08-10T04:04:26.153Z,10.57
2022-08-10T04:07:00.913Z,11.82
2022-08-10T04:09:53.453Z,9.15
2022-08-10T04:12:19.500Z,7.55
2022-08-10T04:14:50.867Z,6.57
2022-08-10T04:18:01.169Z,9.45
2022-08-10T04:20:32.067Z,8.95
2022-08-10T04:23:09.299Z,7.05
2022-08-10T04:25:38.673Z,13.82
2022-08-10T04:28:07.972Z,10.30
2022-08-10T04:30:37.189Z,8.63
2022-08-10T04:33:07.060Z,10.60
2022-08-10T04:35:35.726Z,8.15
2022-08-10T04:38:06.038Z,12.13
2022-08-10T04:40:33.331Z,9.38
2022-08-10T04:43:11.305Z,11.75
2022-08-10T04:45:49.011Z,12.35
2022-08-10T04:48:43.270Z,8.35
2022-08-10T04:51:17.602Z,8.02
2022-08-10T04:54:02.784Z,11.43
2022-08-10T04:56:38.601Z,11.23
2022-08-10T04:59:08.017Z,12.27
2022-08-10T05:02:22.567Z,12.55
2022-08-10T05:04:36.151Z,12.32
2022-08-10T05:07:11.289Z,12.77
2022-08-10T05:10:02.740Z,13.45
2022-08-10T05:12:37.640Z,10.40
2022-08-10T05:15:12.327Z,32.05
2022-08-10T05:17:40.830Z,11.07
2022-08-10T05:20:11.303Z,11.23
2022-08-10T05:22:41.921Z,14.10
2022-08-10T05:25:12.706Z,10.57
2022-08-10T05:27:42.052Z,11.27
2022-08-10T05:30:13.632Z,26.25
2022-08-10T05:32:58.438Z,9.80
2022-08-10T05:35:28.400Z,10.23
2022-08-10T05:38:09.766Z,8.25
2022-08-10T05:43:17.670Z,12.10
2022-08-10T05:46:17.054Z,12.10
2022-08-10T05:48:56.193Z,11.57
2022-08-10T05:51:22.465Z,17.30
2022-08-10T05:54:01.308Z,11.80
2022-08-10T05:56:56.456Z,16.88
2022-08-10T06:00:34.973Z,10.05
2022-08-10T06:02:45.573Z,11.85
2022-08-10T06:05:25.649Z,26.58
2022-08-10T06:08:01.144Z,24.85
2022-08-10T06:10:35.301Z,35.65
2022-08-10T06:13:34.403Z,19.08
2022-08-10T06:16:10.770Z,22.25
2022-08-10T06:18:40.838Z,22.13
2022-08-10T06:21:09.876Z,7.70
2022-08-10T06:23:39.390Z,15.27
2022-08-10T06:26:13.408Z,19.58
2022-08-10T06:29:02.505Z,14.23
2022-08-10T06:31:47.465Z,7.35
2022-08-10T06:34:42.377Z,9.65
2022-08-10T06:37:11.619Z,10.98
2022-08-10T06:39:39.220Z,11.02
2022-08-10T06:42:21.006Z,18.13
2022-08-10T06:45:08.921Z,13.63
2022-08-10T06:48:05.596Z,12.57
2022-08-10T06:50:58.235Z,12.55
2022-08-10T06:53:51.985Z,10.48
2022-08-10T06:56:36.166Z,9.77
2022-08-10T06:59:22.999Z,10.90
2022-08-10T07:04:35.444Z,19.50
2022-08-10T07:07:05.994Z,32.47
2022-08-10T07:09:38.157Z,16.08
2022-08-10T07:12:09.384Z,19.77
2022-08-10T07:14:45.619Z,23.48
2022-08-10T07:17:17.784Z,19.88
2022-08-10T07:19:52.485Z,20.00
2022-08-10T07:23:08.319Z,15.73
2022-08-10T07:25:27.420Z,23.38
2022-08-10T07:27:58.607Z,15.45
2022-08-10T07:30:31.109Z,18.67
2022-08-10T07:33:00.749Z,22.20
2022-08-10T07:35:36.432Z,15.50
2022-08-10T07:38:31.616Z,15.30
2022-08-10T07:41:03.433Z,11.68
2022-08-10T07:43:36.587Z,15.43
2022-08-10T07:46:05.876Z,19.88
2022-08-10T07:48:49.179Z,13.38
2022-08-10T07:51:20.232Z,10.32
2022-08-10T07:53:51.850Z,15.35
2022-08-10T07:56:45.849Z,16.33
2022-08-10T07:59:12.999Z,8.05
2022-08-10T08:01:48.677Z,11.45
2022-08-10T08:04:22.560Z,16.48
2022-08-10T08:06:51.658Z,20.57
2022-08-10T08:09:20.750Z,21.02
2022-08-10T08:11:53.717Z,12.77
2022-08-10T08:14:23.151Z,12.65
2022-08-10T08:16:53.521Z,10.65
2022-08-10T08:19:37.373Z,10.70
2022-08-10T08:24:05.690Z,12.20
2022-08-10T08:24:59.197Z,9.20
2022-08-10T08:27:28.835Z,10.10
2022-08-10T08:29:58.436Z,11.00
2022-08-10T08:32:28.544Z,10.25
2022-08-10T08:35:03.807Z,9.27
2022-08-10T08:38:29.851Z,6.65
2022-08-10T08:40:33.808Z,8.85
2022-08-10T08:43:38.898Z,11.02
2022-08-10T08:46:36.942Z,11.07
2022-08-10T08:50:08.208Z,8.00
2022-08-10T08:52:39.818Z,6.93
2022-08-10T08:56:04.493Z,11.27
2022-08-10T08:58:43.772Z,15.13
2022-08-10T09:01:20.077Z,12.77
2022-08-10T09:04:21.106Z,9.68
2022-08-10T09:07:59.689Z,5.60
2022-08-10T09:10:24.668Z,9.68
2022-08-10T09:13:05.163Z,10.05
2022-08-10T09:15:58.651Z,15.02
2022-08-10T09:18:43.037Z,9.52
2022-08-10T09:21:19.979Z,9.20
2022-08-10T09:24:04.817Z,13.25
2022-08-10T09:26:45.995Z,10.40
2022-08-10T09:29:30.020Z,8.15
2022-08-10T09:36:15.541Z,8.45
2022-08-10T09:36:25.997Z,17.10
2022-08-10T09:38:12.125Z,7.63
2022-08-10T09:41:01.056Z,7.60
2022-08-10T09:43:29.881Z,7.43
2022-08-10T09:46:37.690Z,8.35
2022-08-10T09:49:17.389Z,10.23
2022-08-10T09:52:25.311Z,12.90
2022-08-10T09:55:15.054Z,6.97
2022-08-10T09:57:59.147Z,8.75
2022-08-10T10:00:41.996Z,7.72
2022-08-10T10:03:45.642Z,7.18
2022-08-10T10:06:36.931Z,9.50
2022-08-10T10:09:27.362Z,15.90
2022-08-10T10:12:10.005Z,8.45
2022-08-10T10:15:24.026Z,7.82
2022-08-10T10:18:08.034Z,9.35
2022-08-10T10:21:07.916Z,7.45
2022-08-10T10:24:22.383Z,7.68
2022-08-10T10:27:06.645Z,10.75
2022-08-10T10:29:58.629Z,9.77
2022-08-10T10:32:38.920Z,7.72
2022-08-10T10:35:12.076Z,9.05
2022-08-10T10:38:03.021Z,9.10
2022-08-10T10:40:33.085Z,7.45
2022-08-10T10:43:38.530Z,6.90
2022-08-10T10:46:22.970Z,8.85
2022-08-10T10:49:13.866Z,4.60
2022-08-10T10:51:50.532Z,6.55
2022-08-10T10:54:36.136Z,7.82
2022-08-10T10:57:18.538Z,10.27
2022-08-10T11:00:12.108Z,10.93
2022-08-10T11:03:17.109Z,8.05
2022-08-10T11:05:53.335Z,9.25
2022-08-10T11:08:29.185Z,8.15
2022-08-10T11:11:03.365Z,13.70
2022-08-10T11:14:25.777Z,13.55
2022-08-10T11:16:50.760Z,6.13
2022-08-10T11:20:01.644Z,9.95
2022-08-10T11:22:54.075Z,6.57
2022-08-10T11:25:33.419Z,16.98
2022-08-10T11:28:16.949Z,6.80
2022-08-10T11:31:18.819Z,10.35
2022-08-10T11:34:48.522Z,11.73
2022-08-10T11:37:16.504Z,10.88
2022-08-10T11:40:05.983Z,17.05
2022-08-10T11:42:55.331Z,9.20
2022-08-10T11:45:29.430Z,27.77
2022-08-10T11:48:53.415Z,9.38
2022-08-10T11:51:10.061Z,16.92
2022-08-10T11:53:45.386Z,9.13
2022-08-10T11:56:24.920Z,5.95
2022-08-10T11:59:16.700Z,5.03
2022-08-10T12:01:47.646Z,10.90
2022-08-10T12:04:17.699Z,9.93
2022-08-10T12:06:56.408Z,4.05
2022-08-10T12:10:05.135Z,9.00
2022-08-10T12:12:14.325Z,8.27
2022-08-10T12:14:53.268Z,9.23
2022-08-10T12:17:50.315Z,11.63
2022-08-10T12:20:36.238Z,9.23
2022-08-10T12:26:16.480Z,10.57
2022-08-10T12:28:54.481Z,6.25
2022-08-10T12:31:38.087Z,7.97
2022-08-10T12:34:20.445Z,7.07
2022-08-10T12:36:57.922Z,9.60
2022-08-10T12:39:30.297Z,7.78
2022-08-10T12:42:06.139Z,15.07
2022-08-10T12:45:06.093Z,6.13
2022-08-10T12:47:56.165Z,7.20
2022-08-10T12:50:34.084Z,7.32
2022-08-10T12:53:16.912Z,11.38
2022-08-10T12:55:46.537Z,11.52
2022-08-10T12:58:57.959Z,6.82
2022-08-10T13:01:16.606Z,10.77
2022-08-10T13:04:23.666Z,8.30
2022-08-10T13:06:46.838Z,5.60
2022-08-10T13:09:23.859Z,7.43
2022-08-10T13:12:18.321Z,7.80
2022-08-10T13:15:47.708Z,9.95
2022-08-10T13:18:01.894Z,10.93
2022-08-10T13:20:35.783Z,7.03
2022-08-10T13:23:11.924Z,8.05
2022-08-10T13:25:43.652Z,5.20
2022-08-10T13:28:36.666Z,6.70
2022-08-10T13:31:06.406Z,9.13
2022-08-10T13:34:36.604Z,10.45
2022-08-10T13:36:42.002Z,15.25
2022-08-10T13:39:12.814Z,16.98
2022-08-10T13:41:44.553Z,13.40
2022-08-10T13:44:18.829Z,30.08
2022-08-10T13:46:55.119Z,27.30
2022-08-10T13:49:24.259Z,12.02
2022-08-10T13:51:56.753Z,13.50
2022-08-10T13:54:29.467Z,8.40
2022-08-10T13:56:58.253Z,12.27
2022-08-10T14:00:33.969Z,16.35
2022-08-10T14:02:35.391Z,15.00
2022-08-10T14:05:06.751Z,12.35
2022-08-10T14:07:40.082Z,11.02
2022-08-10T14:11:08.410Z,10.45
2022-08-10T14:13:36.207Z,15.57
2022-08-10T14:16:08.237Z,23.48
2022-08-10T14:18:37.032Z,8.95
2022-08-10T14:21:05.935Z,12.38
2022-08-10T14:23:40.701Z,7.13
2022-08-10T14:26:11.589Z,11.40
2022-08-10T14:28:46.946Z,8.98
2022-08-10T14:31:21.837Z,11.15
2022-08-10T14:33:56.559Z,11.40
2022-08-10T14:36:32.100Z,10.68
2022-08-10T14:39:02.792Z,12.75
2022-08-10T14:42:01.748Z,11.93
2022-08-10T14:44:21.870Z,17.33
2022-08-10T14:46:56.116Z,10.65
2022-08-10T14:49:26.153Z,11.80
2022-08-10T14:52:01.910Z,22.40
2022-08-10T14:54:32.575Z,13.13
2022-08-10T14:57:11.019Z,13.57
2022-08-10T15:00:22.930Z,12.07
2022-08-10T15:02:56.117Z,12.57
2022-08-10T15:05:39.762Z,14.48
2022-08-10T15:08:11.771Z,15.10
2022-08-10T15:10:40.339Z,17.77
2022-08-10T15:13:34.901Z,12.93
2022-08-10T15:16:12.427Z,12.32
2022-08-10T15:18:58.462Z,18.67
2022-08-10T15:21:35.254Z,9.35
2022-08-10T15:24:37.184Z,18.03
2022-08-10T15:27:08.859Z,19.55
2022-08-10T15:29:57.677Z,16.95
2022-08-10T15:32:54.200Z,17.15
2022-08-10T15:35:44.804Z,19.98
2022-08-10T15:38:16.366Z,11.95
2022-08-10T15:40:55.168Z,14.57
2022-08-10T15:43:28.284Z,18.40
2022-08-10T15:46:19.307Z,22.42
2022-08-10T15:49:00.442Z,17.98
2022-08-10T15:51:53.718Z,14.93
2022-08-10T15:54:33.385Z,19.73
2022-08-10T15:57:08.193Z,13.15
2022-08-10T16:00:06.740Z,17.98
2022-08-10T16:02:51.144Z,13.35
2022-08-10T16:06:00.307Z,11.30
2022-08-10T16:08:17.389Z,16.95
2022-08-10T16:10:58.450Z,14.57
2022-08-10T16:13:57.303Z,14.65
2022-08-10T16:16:20.864Z,14.15
2022-08-10T16:18:50.527Z,14.30
2022-08-10T16:21:22.666Z,13.00
2022-08-10T16:24:14.925Z,16.67
2022-08-10T16:26:46.702Z,18.67
2022-08-10T16:29:18.055Z,13.80
2022-08-10T16:31:56.097Z,12.02
2022-08-10T16:34:26.263Z,13.52
2022-08-10T16:37:00.434Z,14.75
2022-08-10T16:39:59.391Z,12.40
2022-08-10T16:42:24.119Z,11.15
2022-08-10T16:44:58.180Z,12.50
2022-08-10T16:47:29.080Z,13.75
2022-08-10T16:50:02.690Z,18.90
2022-08-10T16:52:33.091Z,13.02
2022-08-10T16:55:16.894Z,16.27
2022-08-10T16:57:56.713Z,14.48
2022-08-10T17:00:26.409Z,21.05
2022-08-10T17:02:58.546Z,11.55
2022-08-10T17:06:09.605Z,16.50
2022-08-10T17:08:19.382Z,14.95
2022-08-10T17:10:46.922Z,15.93
2022-08-10T17:13:16.807Z,12.80
2022-08-10T17:15:53.440Z,16.20
2022-08-10T17:18:29.969Z,18.88
2022-08-10T17:21:06.652Z,14.63
2022-08-10T17:23:38.018Z,16.92
2022-08-10T17:26:12.561Z,14.25
2022-08-10T17:28:51.337Z,18.15
2022-08-10T17:31:53.334Z,19.15
2022-08-10T17:34:29.402Z,19.73
2022-08-10T17:36:59.707Z,19.73
2022-08-10T17:39:56.418Z,18.33
2022-08-10T17:42:27.458Z,19.48
2022-08-10T17:44:55.941Z,23.67
2022-08-10T17:47:27.499Z,20.38
2022-08-10T17:49:57.390Z,16.63
2022-08-10T17:52:29.389Z,14.13
2022-08-10T17:55:09.641Z,20.70
2022-08-10T17:57:39.069Z,24.48
2022-08-10T18:00:16.019Z,17.30
2022-08-10T18:02:46.593Z,17.30
2022-08-10T18:05:15.281Z,23.50
2022-08-10T18:07:53.702Z,22.17
2022-08-10T18:10:22.342Z,16.13
2022-08-10T18:12:53.574Z,26.95
2022-08-10T18:15:24.922Z,25.80
2022-08-10T18:17:59.186Z,25.80
2022-08-10T18:20:36.256Z,21.27
2022-08-10T18:23:06.398Z,27.17
2022-08-10T18:25:39.136Z,15.00
2022-08-10T18:28:11.244Z,20.90
2022-08-10T18:30:51.235Z,16.17
2022-08-10T18:33:31.965Z,17.88
2022-08-10T18:36:03.500Z,16.42
2022-08-10T18:38:33.807Z,21.98
2022-08-10T18:41:06.711Z,18.25
2022-08-10T18:44:10.735Z,19.30
2022-08-10T18:46:44.386Z,19.40
2022-08-10T18:49:29.303Z,21.30
2022-08-10T18:52:02.375Z,17.80
2022-08-10T18:54:44.222Z,17.55
2022-08-10T18:57:37.318Z,24.75
2022-08-10T19:00:13.617Z,16.33
2022-08-10T19:03:18.614Z,18.95
2022-08-10T19:08:50.782Z,11.23
2022-08-10T19:12:00.167Z,9.02
2022-08-10T19:14:45.879Z,14.13
2022-08-10T19:18:03.345Z,12.30
2022-08-10T19:20:36.618Z,9.25
2022-08-10T19:23:26.054Z,9.05
2022-08-10T19:26:37.998Z,10.85
2022-08-10T19:30:08.375Z,7.28
2022-08-10T19:32:29.577Z,7.95
2022-08-10T19:35:19.588Z,9.88
2022-08-10T19:38:01.162Z,13.65
2022-08-10T19:40:44.197Z,7.65
2022-08-10T19:43:20.558Z,11.90
2022-08-10T19:46:11.804Z,10.25
2022-08-10T19:49:02.402Z,11.50
2022-08-10T19:51:39.827Z,8.32
2022-08-10T19:54:23.183Z,12.23
2022-08-10T19:57:25.688Z,13.43
2022-08-10T20:00:18.884Z,16.13
2022-08-10T20:02:51.276Z,8.90
2022-08-10T20:05:24.823Z,16.00
2022-08-10T20:07:52.135Z,7.75
2022-08-10T20:10:25.990Z,10.93
2022-08-10T20:13:30.611Z,11.95
2022-08-10T20:16:07.247Z,14.80
2022-08-10T20:18:43.829Z,10.63
2022-08-10T20:21:21.829Z,10.63
2022-08-10T20:24:05.971Z,15.35
2022-08-10T20:26:49.085Z,16.42
2022-08-10T20:29:57.604Z,14.43
2022-08-10T20:32:49.070Z,10.00
2022-08-10T20:35:26.991Z,9.73
2022-08-10T20:38:10.958Z,9.07
2022-08-10T20:40:52.975Z,11.02
2022-08-10T20:43:41.365Z,13.07
2022-08-10T20:46:27.705Z,6.93
2022-08-10T20:49:31.462Z,10.45
2022-08-10T20:52:03.216Z,13.00
2022-08-10T20:54:38.529Z,8.65
2022-08-10T20:57:54.098Z,9.13
2022-08-10T21:00:28.074Z,9.98
2022-08-10T21:03:21.036Z,7.88
2022-08-10T21:06:07.946Z,11.65
2022-08-10T21:08:53.526Z,8.43
2022-08-10T21:11:58.030Z,14.77
2022-08-10T21:14:47.771Z,9.07
2022-08-10T21:17:51.750Z,9.52
2022-08-10T21:20:34.591Z,16.15
2022-08-10T21:23:08.642Z,13.98
2022-08-10T21:26:18.451Z,13.20
2022-08-10T21:29:10.000Z,9.40
2022-08-10T21:32:14.722Z,12.68
2022-08-10T21:35:37.438Z,11.05
2022-08-10T21:38:14.086Z,13.40
2022-08-10T21:41:17.948Z,12.80
2022-08-10T21:44:14.536Z,6.82
2022-08-10T21:47:39.610Z,10.70
2022-08-10T21:50:27.691Z,12.85
2022-08-10T21:53:53.322Z,11.10
2022-08-10T21:56:51.224Z,10.52
2022-08-10T21:59:56.420Z,8.90
2022-08-10T22:02:50.281Z,16.03
2022-08-10T22:05:45.533Z,8.57
2022-08-10T22:08:36.817Z,8.90
2022-08-10T22:11:31.120Z,8.05
2022-08-10T22:14:26.825Z,6.57
2022-08-10T22:17:59.415Z,10.98
2022-08-10T22:20:53.191Z,11.07
2022-08-10T22:24:19.034Z,11.15
2022-08-10T22:27:12.291Z,14.30
2022-08-10T22:30:23.146Z,10.73
2022-08-10T22:33:17.946Z,14.00
2022-08-10T22:36:24.137Z,14.63
2022-08-10T22:40:12.055Z,22.35
2022-08-10T22:43:10.924Z,11.57
2022-08-10T22:46:07.663Z,14.35
2022-08-10T22:49:01.838Z,17.23
2022-08-10T22:51:46.078Z,27.83
2022-08-10T22:54:43.978Z,27.55
2022-08-10T22:57:35.895Z,18.95
2022-08-10T23:00:18.267Z,30.02
2022-08-10T23:02:59.748Z,26.48
2022-08-10T23:05:38.507Z,38.35
2022-08-10T23:08:33.622Z,42.10
2022-08-10T23:11:12.455Z,39.75
2022-08-10T23:13:45.122Z,25.83
2022-08-10T23:16:38.354Z,25.85
2022-08-10T23:19:10.898Z,33.50
2022-08-10T23:22:05.611Z,32.33
2022-08-10T23:24:49.732Z,23.90
2022-08-10T23:27:39.027Z,24.98
2022-08-10T23:30:17.022Z,21.85
2022-08-10T23:32:49.378Z,10.02
2022-08-10T23:36:13.064Z,13.27
2022-08-10T23:38:22.047Z,10.70
2022-08-10T23:40:53.844Z,15.48
2022-08-10T23:43:46.687Z,12.63
2022-08-10T23:46:16.202Z,10.77
2022-08-10T23:48:47.704Z,13.05
2022-08-10T23:51:17.523Z,11.63
2022-08-10T23:53:48.212Z,8.75
2022-08-10T23:56:22.840Z,13.10
2022-08-10T23:58:57.519Z,9.57
